createdAt,value
2023-10-27T00:01:58.990Z,96436.15
2023-10-27T00:04:01.862Z,96436.87
2023-10-27T00:06:04.966Z,96431.27
2023-10-27T00:08:08.169Z,96434.71
2023-10-27T00:10:10.898Z,96438.24
2023-10-27T00:12:13.601Z,96437.55
2023-10-27T00:14:16.235Z,96438.52
2023-10-27T00:16:19.115Z,96436.05
2023-10-27T00:18:21.721Z,96434.61
2023-10-27T00:20:25.035Z,96431.67
2023-10-27T00:22:29.045Z,96433.92
2023-10-27T00:24:31.910Z,96431.04
2023-10-27T00:26:34.573Z,96434.45
2023-10-27T00:28:37.131Z,96437.69
2023-10-27T00:30:39.759Z,96439.33
2023-10-27T00:32:43.053Z,96434.73
2023-10-27T00:34:45.894Z,96442.64
2023-10-27T00:36:49.237Z,96446.45
2023-10-27T00:38:52.561Z,96448.91
2023-10-27T00:40:55.684Z,96449.27
2023-10-27T00:42:59.617Z,96446.55
2023-10-27T00:45:02.622Z,96445.83
2023-10-27T00:47:05.555Z,96444.83
2023-10-27T00:49:08.573Z,96446.20
2023-10-27T00:51:12.375Z,96448.76
2023-10-27T00:53:19.428Z,96449.20
2023-10-27T00:55:22.112Z,96452.67
2023-10-27T00:57:26.318Z,96454.09
2023-10-27T00:59:29.559Z,96456.75
2023-10-27T01:01:33.672Z,96458.33
2023-10-27T01:03:36.370Z,96457.77
2023-10-27T01:05:39.118Z,96460.09
2023-10-27T01:07:42.130Z,96465.46
2023-10-27T01:09:46.061Z,96461.62
2023-10-27T01:11:50.027Z,96462.79
2023-10-27T01:13:53.983Z,96463.80
2023-10-27T01:15:56.728Z,96459.55
2023-10-27T01:17:59.406Z,96460.42
2023-10-27T01:20:02.274Z,96460.06
2023-10-27T01:22:05.057Z,96465.03
2023-10-27T01:24:08.510Z,96464.01
2023-10-27T01:26:11.080Z,96459.02
2023-10-27T01:28:13.787Z,96456.55
2023-10-27T01:30:17.084Z,96459.76
2023-10-27T01:32:19.831Z,96457.13
2023-10-27T01:34:23.314Z,96456.61
2023-10-27T01:36:26.101Z,96455.65
2023-10-27T01:38:29.078Z,96452.23
2023-10-27T01:40:31.990Z,96450.40
2023-10-27T01:42:36.187Z,96447.73
2023-10-27T01:44:38.860Z,96448.63
2023-10-27T01:46:41.453Z,96446.65
2023-10-27T01:48:44.649Z,96444.02
2023-10-27T01:50:48.048Z,96442.14
2023-10-27T01:52:50.674Z,96438.20
2023-10-27T01:54:54.830Z,96432.84
2023-10-27T01:56:57.648Z,96432.95
2023-10-27T01:59:00.245Z,96429.94
2023-10-27T02:01:02.981Z,96426.65
2023-10-27T02:03:07.085Z,96429.10
2023-10-27T02:05:10.453Z,96425.48
2023-10-27T02:07:13.548Z,96425.05
2023-10-27T02:09:16.251Z,96423.06
2023-10-27T02:11:20.027Z,96421.41
2023-10-27T02:13:22.858Z,96419.21
2023-10-27T02:15:25.624Z,96419.13
2023-10-27T02:17:28.581Z,96417.79
2023-10-27T02:19:33.160Z,96416.96
2023-10-27T02:21:37.710Z,96413.20
2023-10-27T02:23:40.412Z,96416.35
2023-10-27T02:25:43.015Z,96416.14
2023-10-27T02:27:47.714Z,96415.55
2023-10-27T02:29:51.318Z,96412.98
2023-10-27T02:31:54.082Z,96410.45
2023-10-27T02:33:56.840Z,96410.92
2023-10-27T02:35:59.725Z,96409.65
2023-10-27T02:38:05.282Z,96406.02
2023-10-27T02:40:08.908Z,96401.86
2023-10-27T02:42:11.768Z,96395.41
2023-10-27T02:44:14.387Z,96395.19
2023-10-27T02:46:17.223Z,96388.84
2023-10-27T02:48:19.942Z,96382.40
2023-10-27T02:50:24.211Z,96382.04
2023-10-27T02:52:28.036Z,96380.70
2023-10-27T02:54:31.585Z,96377.64
2023-10-27T02:56:34.364Z,96379.31
2023-10-27T02:58:37.883Z,96384.95
2023-10-27T03:00:44.296Z,96390.98
2023-10-27T03:02:47.644Z,96394.09
2023-10-27T03:04:53.047Z,96399.73
2023-10-27T03:06:56.063Z,96400.58
2023-10-27T03:08:58.730Z,96398.16
2023-10-27T03:11:01.985Z,96396.02
2023-10-27T03:13:09.366Z,96394.09
2023-10-27T03:15:12.309Z,96391.26
2023-10-27T03:17:14.916Z,96392.39
2023-10-27T03:19:19.227Z,96397.40
2023-10-27T03:21:22.015Z,96398.05
2023-10-27T03:23:25.643Z,96397.48
2023-10-27T03:25:28.392Z,96397.48
2023-10-27T03:27:33.394Z,96397.64
2023-10-27T03:29:37.571Z,96399.11
2023-10-27T03:31:41.272Z,96397.54
2023-10-27T03:33:43.956Z,96397.63
2023-10-27T03:35:48.033Z,96399.44
2023-10-27T03:37:50.810Z,96400.18
2023-10-27T03:39:54.402Z,96399.23
2023-10-27T03:41:57.609Z,96403.30
2023-10-27T03:44:00.805Z,96404.62
2023-10-27T03:46:03.801Z,96403.00
2023-10-27T03:48:06.824Z,96404.56
2023-10-27T03:50:09.858Z,96409.01
2023-10-27T03:52:12.492Z,96409.00
2023-10-27T03:54:15.162Z,96410.20
2023-10-27T03:56:18.974Z,96417.89
2023-10-27T03:58:27.337Z,96413.95
2023-10-27T04:00:35.179Z,96414.07
2023-10-27T04:02:38.616Z,96412.18
2023-10-27T04:04:41.245Z,96413.57
2023-10-27T04:06:44.912Z,96414.64
2023-10-27T04:08:48.054Z,96415.96
2023-10-27T04:10:50.799Z,96412.13
2023-10-27T04:12:53.624Z,96414.10
2023-10-27T04:14:56.436Z,96410.74
2023-10-27T04:17:00.419Z,96412.80
2023-10-27T04:19:03.146Z,96411.45
2023-10-27T04:21:06.328Z,96414.63
2023-10-27T04:23:10.435Z,96412.39
2023-10-27T04:25:13.653Z,96409.98
2023-10-27T04:27:16.363Z,96411.83
2023-10-27T04:29:19.268Z,96408.81
2023-10-27T04:31:22.778Z,96410.54
2023-10-27T04:33:27.013Z,96410.88
2023-10-27T04:35:29.699Z,96412.79
2023-10-27T04:37:33.434Z,96417.85
2023-10-27T04:39:36.519Z,96418.05
2023-10-27T04:41:39.104Z,96412.61
2023-10-27T04:43:41.782Z,96415.08
2023-10-27T04:45:45.902Z,96415.23
2023-10-27T04:47:48.634Z,96416.68
2023-10-27T04:49:51.323Z,96413.20
2023-10-27T04:51:53.958Z,96410.42
2023-10-27T04:53:57.732Z,96407.39
2023-10-27T04:56:00.389Z,96410.55
2023-10-27T04:58:03.441Z,96410.95
2023-10-27T05:00:07.269Z,96409.09
2023-10-27T05:02:10.602Z,96406.75
2023-10-27T05:04:14.508Z,96404.41
2023-10-27T05:06:17.529Z,96403.23
2023-10-27T05:08:20.342Z,96404.55
2023-10-27T05:10:23.738Z,96403.23
2023-10-27T05:12:26.778Z,96403.92
2023-10-27T05:14:29.822Z,96404.61
2023-10-27T05:16:32.729Z,96404.66
2023-10-27T05:18:35.950Z,96402.39
2023-10-27T05:20:39.208Z,96408.25
2023-10-27T05:22:41.906Z,96404.41
2023-10-27T05:24:44.715Z,96398.97
2023-10-27T05:26:47.492Z,96398.18
2023-10-27T05:28:50.944Z,96395.45
2023-10-27T05:30:54.783Z,96398.83
2023-10-27T05:32:57.597Z,96400.48
2023-10-27T05:35:00.294Z,96404.79
2023-10-27T05:37:03.277Z,96403.87
2023-10-27T05:39:06.986Z,96408.66
2023-10-27T05:41:09.613Z,96405.71
2023-10-27T05:43:14.124Z,96402.87
2023-10-27T05:45:16.777Z,96399.52
2023-10-27T05:47:20.674Z,96405.05
2023-10-27T05:49:24.895Z,96407.96
2023-10-27T05:51:27.662Z,96407.86
2023-10-27T05:53:30.298Z,96407.82
2023-10-27T05:55:33.562Z,96413.27
2023-10-27T05:57:39.068Z,96414.12
2023-10-27T05:59:45.252Z,96422.36
2023-10-27T06:01:58.265Z,96422.13
2023-10-27T06:04:06.902Z,96425.36
2023-10-27T06:06:11.752Z,96427.33
2023-10-27T06:08:14.569Z,96433.66
2023-10-27T06:10:18.332Z,96431.06
2023-10-27T06:12:21.109Z,96426.48
2023-10-27T06:14:24.016Z,96428.98
2023-10-27T06:16:26.798Z,96434.09
2023-10-27T06:18:29.541Z,96435.41
2023-10-27T06:20:32.864Z,96438.86
2023-10-27T06:22:36.532Z,96444.34
2023-10-27T06:24:39.426Z,96451.66
2023-10-27T06:26:43.374Z,96449.67
2023-10-27T06:28:47.632Z,96449.94
2023-10-27T06:30:50.430Z,96450.98
2023-10-27T06:32:53.208Z,96453.56
2023-10-27T06:34:55.909Z,96449.20
2023-10-27T06:37:01.510Z,96452.03
2023-10-27T06:39:04.453Z,96451.88
2023-10-27T06:41:07.104Z,96451.43
2023-10-27T06:43:10.959Z,96454.06
2023-10-27T06:45:13.964Z,96456.27
2023-10-27T06:47:21.809Z,96458.34
2023-10-27T06:49:26.842Z,96454.90
2023-10-27T06:51:30.325Z,96456.92
2023-10-27T06:53:33.739Z,96456.63
2023-10-27T06:55:36.411Z,96460.39
2023-10-27T06:57:39.275Z,96462.60
2023-10-27T06:59:42.396Z,96468.67
2023-10-27T07:01:47.178Z,96470.38
2023-10-27T07:03:50.041Z,96476.70
2023-10-27T07:05:52.656Z,96478.34
2023-10-27T07:07:55.744Z,96476.70
2023-10-27T07:10:00.313Z,96476.90
2023-10-27T07:12:04.955Z,96473.54
2023-10-27T07:14:07.688Z,96478.04
2023-10-27T07:16:10.551Z,96479.98
2023-10-27T07:18:13.660Z,96478.92
2023-10-27T07:20:16.624Z,96482.75
2023-10-27T07:22:20.804Z,96479.08
2023-10-27T07:24:24.113Z,96478.85
2023-10-27T07:26:27.061Z,96476.62
2023-10-27T07:28:29.955Z,96474.73
2023-10-27T07:30:32.791Z,96477.10
2023-10-27T07:32:35.493Z,96477.45
2023-10-27T07:34:38.363Z,96472.19
2023-10-27T07:36:42.164Z,96472.06
2023-10-27T07:38:45.574Z,96470.52
2023-10-27T07:40:48.665Z,96471.23
2023-10-27T07:42:51.321Z,96466.98
2023-10-27T07:44:55.945Z,96468.55
2023-10-27T07:47:00.404Z,96472.67
2023-10-27T07:49:03.123Z,96469.10
2023-10-27T07:51:07.032Z,96470.92
2023-10-27T07:53:12.048Z,96467.55
2023-10-27T07:55:15.869Z,96465.59
2023-10-27T07:57:19.077Z,96465.77
2023-10-27T07:59:21.914Z,96467.23
2023-10-27T08:01:25.485Z,96477.54
2023-10-27T08:03:29.596Z,96483.00
2023-10-27T08:05:32.570Z,96486.02
2023-10-27T08:07:36.974Z,96485.48
2023-10-27T08:09:39.847Z,96485.81
2023-10-27T08:11:43.571Z,96485.98
2023-10-27T08:13:46.670Z,96490.85
2023-10-27T08:15:49.316Z,96486.13
2023-10-27T08:17:52.115Z,96487.31
2023-10-27T08:19:54.813Z,96489.94
2023-10-27T08:21:57.555Z,96488.46
2023-10-27T08:24:00.242Z,96489.05
2023-10-27T08:26:03.604Z,96489.42
2023-10-27T08:28:07.086Z,96485.69
2023-10-27T08:30:09.901Z,96481.10
2023-10-27T08:32:14.825Z,96477.48
2023-10-27T08:34:17.854Z,96475.81
2023-10-27T08:36:23.060Z,96475.55
2023-10-27T08:38:30.680Z,96476.88
2023-10-27T08:40:33.647Z,96485.15
2023-10-27T08:42:37.326Z,96490.11
2023-10-27T08:44:42.930Z,96490.67
2023-10-27T08:46:46.704Z,96495.48
2023-10-27T08:48:50.980Z,96492.60
2023-10-27T08:50:58.641Z,96495.27
2023-10-27T08:53:01.420Z,96495.46
2023-10-27T08:55:13.438Z,96496.27
2023-10-27T08:57:16.342Z,96498.81
2023-10-27T08:59:19.008Z,96500.06
2023-10-27T09:01:21.846Z,96501.77
2023-10-27T09:03:29.598Z,96500.55
2023-10-27T09:05:34.130Z,96503.73
2023-10-27T09:07:38.038Z,96502.80
2023-10-27T09:09:41.016Z,96504.13
2023-10-27T09:11:45.899Z,96504.63
2023-10-27T09:13:48.693Z,96502.27
2023-10-27T09:15:52.752Z,96506.33
2023-10-27T09:17:59.625Z,96501.98
2023-10-27T09:20:07.903Z,96502.36
2023-10-27T09:22:17.449Z,96502.05
2023-10-27T09:24:26.093Z,96507.50
2023-10-27T09:26:46.969Z,96508.19
2023-10-27T09:29:00.494Z,96506.03
2023-10-27T09:31:04.221Z,96506.38
2023-10-27T09:33:20.312Z,96502.23
2023-10-27T09:35:25.830Z,96497.71
2023-10-27T09:37:29.575Z,96496.16
2023-10-27T09:39:32.481Z,96502.73
2023-10-27T09:41:39.865Z,96502.31
2023-10-27T09:43:43.613Z,96501.19
2023-10-27T09:46:07.608Z,96499.38
2023-10-27T09:48:11.563Z,96495.56
2023-10-27T09:50:24.281Z,96496.80
2023-10-27T09:52:30.151Z,96491.86
2023-10-27T09:54:33.972Z,96489.50
2023-10-27T09:56:37.030Z,96488.79
2023-10-27T09:58:42.257Z,96486.83
2023-10-27T10:00:46.087Z,96493.29
2023-10-27T10:02:50.038Z,96492.71
2023-10-27T10:04:52.949Z,96493.15
2023-10-27T10:06:56.459Z,96493.27
2023-10-27T10:09:13.076Z,96488.75
2023-10-27T10:11:18.683Z,96484.20
2023-10-27T10:13:36.633Z,96487.56
2023-10-27T10:15:40.034Z,96485.08
2023-10-27T10:17:42.853Z,96483.45
2023-10-27T10:19:54.000Z,96481.69
2023-10-27T10:21:58.306Z,96481.61
2023-10-27T10:24:04.954Z,96485.16
2023-10-27T10:26:07.929Z,96486.27
2023-10-27T10:28:12.923Z,96484.99
2023-10-27T10:30:22.407Z,96480.57
2023-10-27T10:32:35.422Z,96478.83
2023-10-27T10:34:38.220Z,96477.41
2023-10-27T10:36:41.928Z,96472.56
2023-10-27T10:38:57.076Z,96471.71
2023-10-27T10:41:00.652Z,96471.23
2023-10-27T10:43:25.534Z,96468.35
2023-10-27T10:45:28.609Z,96469.10
2023-10-27T10:47:32.272Z,96469.48
2023-10-27T10:49:37.450Z,96467.36
2023-10-27T10:51:40.826Z,96464.80
2023-10-27T10:53:45.310Z,96467.25
2023-10-27T10:55:49.575Z,96463.39
2023-10-27T10:57:52.310Z,96463.64
2023-10-27T10:59:55.433Z,96467.33
2023-10-27T11:01:58.765Z,96463.74
2023-10-27T11:04:01.575Z,96462.84
2023-10-27T11:06:06.688Z,96460.26
2023-10-27T11:08:09.759Z,96464.50
2023-10-27T11:10:22.381Z,96458.49
2023-10-27T11:12:28.545Z,96459.20
2023-10-27T11:14:40.309Z,96461.44
2023-10-27T11:16:44.196Z,96455.66
2023-10-27T11:18:53.906Z,96456.21
2023-10-27T11:20:56.789Z,96453.64
2023-10-27T11:23:17.320Z,96455.36
2023-10-27T11:25:29.314Z,96455.24
2023-10-27T11:27:32.199Z,96454.23
2023-10-27T11:29:35.852Z,96456.98
2023-10-27T11:31:43.459Z,96458.75
2023-10-27T11:34:06.691Z,96458.42
2023-10-27T11:36:13.824Z,96463.09
2023-10-27T11:38:16.614Z,96466.48
2023-10-27T11:40:19.812Z,96467.48
2023-10-27T11:42:22.571Z,96467.79
2023-10-27T11:44:25.564Z,96469.36
2023-10-27T11:46:28.235Z,96471.59
2023-10-27T11:48:31.018Z,96474.69
2023-10-27T11:50:33.836Z,96473.34
2023-10-27T11:52:37.105Z,96472.03
2023-10-27T11:54:40.095Z,96475.92
2023-10-27T11:56:43.380Z,96477.42
2023-10-27T11:58:47.299Z,96478.67
2023-10-27T12:00:50.251Z,96479.71
2023-10-27T12:02:53.280Z,96483.25
2023-10-27T12:04:56.010Z,96485.75
2023-10-27T12:06:58.726Z,96490.45
2023-10-27T12:09:01.765Z,96493.18
2023-10-27T12:11:04.879Z,96494.36
2023-10-27T12:13:10.376Z,96493.61
2023-10-27T12:15:15.988Z,96494.02
2023-10-27T12:17:18.771Z,96497.63
2023-10-27T12:19:21.780Z,96499.17
2023-10-27T12:21:25.426Z,96505.15
2023-10-27T12:23:32.037Z,96508.44
2023-10-27T12:25:36.323Z,96516.95
2023-10-27T12:27:39.314Z,96519.85
2023-10-27T12:29:43.620Z,96522.03
2023-10-27T12:31:46.616Z,96528.86
2023-10-27T12:33:52.711Z,96536.37
2023-10-27T12:35:56.318Z,96536.67
2023-10-27T12:37:59.487Z,96540.50
2023-10-27T12:40:07.311Z,96546.42
2023-10-27T12:42:10.073Z,96552.61
2023-10-27T12:44:13.074Z,96555.74
2023-10-27T12:46:15.636Z,96561.90
2023-10-27T12:48:18.582Z,96566.85
2023-10-27T12:50:23.309Z,96572.95
2023-10-27T12:52:30.307Z,96581.70
2023-10-27T12:54:39.943Z,96579.88
2023-10-27T12:56:43.110Z,96582.29
2023-10-27T12:58:47.140Z,96581.41
2023-10-27T13:00:49.880Z,96592.45
2023-10-27T13:02:53.144Z,96594.69
2023-10-27T13:04:59.817Z,96596.07
2023-10-27T13:07:02.858Z,96600.23
2023-10-27T13:09:06.209Z,96604.55
2023-10-27T13:11:09.938Z,96613.27
2023-10-27T13:13:14.588Z,96615.56
2023-10-27T13:15:20.306Z,96622.17
2023-10-27T13:17:22.908Z,96622.36
2023-10-27T13:19:25.818Z,96627.67
2023-10-27T13:21:28.507Z,96628.22
2023-10-27T13:23:35.826Z,96629.89
2023-10-27T13:25:41.694Z,96627.83
2023-10-27T13:27:49.530Z,96631.45
2023-10-27T13:29:53.056Z,96629.94
2023-10-27T13:31:56.768Z,96634.47
2023-10-27T13:34:00.010Z,96628.94
2023-10-27T13:36:10.890Z,96625.56
2023-10-27T13:38:14.740Z,96625.25
2023-10-27T13:40:22.065Z,96631.46
2023-10-27T13:42:27.681Z,96633.62
2023-10-27T13:44:31.206Z,96638.58
2023-10-27T13:46:34.340Z,96644.94
2023-10-27T13:48:37.737Z,96645.40
2023-10-27T13:50:40.500Z,96644.61
2023-10-27T13:52:45.639Z,96645.40
2023-10-27T13:54:48.751Z,96644.06
2023-10-27T13:56:51.411Z,96653.78
2023-10-27T13:58:56.059Z,96656.91
2023-10-27T14:00:59.521Z,96657.86
2023-10-27T14:03:02.537Z,96656.60
2023-10-27T14:05:05.951Z,96660.08
2023-10-27T14:07:08.887Z,96661.74
2023-10-27T14:09:11.598Z,96662.73
2023-10-27T14:11:16.001Z,96660.17
2023-10-27T14:13:19.086Z,96659.37
2023-10-27T14:15:22.548Z,96660.75
2023-10-27T14:17:25.346Z,96660.42
2023-10-27T14:19:29.770Z,96656.86
2023-10-27T14:21:38.625Z,96659.58
2023-10-27T14:23:41.908Z,96664.66
2023-10-27T14:25:46.300Z,96665.81
2023-10-27T14:27:49.145Z,96668.87
2023-10-27T14:29:51.878Z,96674.23
2023-10-27T14:31:55.575Z,96673.99
2023-10-27T14:33:58.425Z,96673.48
2023-10-27T14:36:09.881Z,96676.27
2023-10-27T14:38:14.035Z,96682.73
2023-10-27T14:40:16.854Z,96686.90
2023-10-27T14:42:19.588Z,96680.07
2023-10-27T14:44:22.854Z,96683.18
2023-10-27T14:46:25.600Z,96683.02
2023-10-27T14:48:29.649Z,96684.95
2023-10-27T14:50:32.343Z,96679.15
2023-10-27T14:52:35.592Z,96681.48
2023-10-27T14:54:43.693Z,96684.48
2023-10-27T14:56:47.972Z,96691.15
2023-10-27T14:58:56.494Z,96693.71
2023-10-27T15:01:04.101Z,96692.69
2023-10-27T15:03:08.891Z,96690.61
2023-10-27T15:05:11.776Z,96696.68
2023-10-27T15:07:14.580Z,96698.30
2023-10-27T15:09:17.223Z,96701.45
2023-10-27T15:11:20.959Z,96706.88
2023-10-27T15:13:24.601Z,96708.92
2023-10-27T15:15:27.541Z,96715.82
2023-10-27T15:17:30.323Z,96718.06
2023-10-27T15:19:39.097Z,96718.75
2023-10-27T15:21:44.918Z,96716.13
2023-10-27T15:23:48.997Z,96715.32
2023-10-27T15:25:52.089Z,96714.38
2023-10-27T15:27:55.150Z,96711.56
2023-10-27T15:29:57.905Z,96712.95
2023-10-27T15:32:01.273Z,96719.20
2023-10-27T15:34:04.920Z,96719.86
2023-10-27T15:36:11.169Z,96724.19
2023-10-27T15:38:15.216Z,96725.48
2023-10-27T15:40:17.847Z,96726.88
2023-10-27T15:42:20.638Z,96728.80
2023-10-27T15:44:23.617Z,96729.85
2023-10-27T15:46:26.954Z,96729.85
2023-10-27T15:48:32.959Z,96728.04
2023-10-27T15:50:36.220Z,96731.55
2023-10-27T15:52:38.784Z,96730.33
2023-10-27T15:54:44.683Z,96730.08
2023-10-27T15:56:47.445Z,96734.34
2023-10-27T15:58:50.458Z,96744.77
2023-10-27T16:00:54.382Z,96741.60
2023-10-27T16:02:57.055Z,96746.02
2023-10-27T16:05:02.728Z,96748.31
2023-10-27T16:07:10.831Z,96749.29
2023-10-27T16:09:35.192Z,96747.80
2023-10-27T16:11:38.023Z,96751.50
2023-10-27T16:13:41.269Z,96755.27
2023-10-27T16:15:43.971Z,96761.08
2023-10-27T16:17:46.771Z,96763.98
2023-10-27T16:19:49.660Z,96766.55
2023-10-27T16:21:52.722Z,96767.30
2023-10-27T16:23:56.268Z,96765.48
2023-10-27T16:25:59.639Z,96769.98
2023-10-27T16:28:06.375Z,96772.17
2023-10-27T16:30:11.787Z,96776.70
2023-10-27T16:32:18.067Z,96776.23
2023-10-27T16:34:22.642Z,96774.89
2023-10-27T16:36:26.391Z,96774.63
2023-10-27T16:38:29.300Z,96776.07
2023-10-27T16:40:33.073Z,96776.20
2023-10-27T16:42:35.902Z,96780.64
2023-10-27T16:44:38.663Z,96778.41
2023-10-27T16:46:41.472Z,96780.16
2023-10-27T16:48:45.973Z,96785.88
2023-10-27T16:50:48.883Z,96784.21
2023-10-27T16:52:51.606Z,96784.13
2023-10-27T16:54:54.284Z,96783.42
2023-10-27T16:57:00.309Z,96780.09
2023-10-27T16:59:02.969Z,96781.08
2023-10-27T17:01:07.832Z,96786.30
2023-10-27T17:03:11.443Z,96781.60
2023-10-27T17:05:16.652Z,96782.34
2023-10-27T17:07:21.764Z,96783.60
2023-10-27T17:09:24.593Z,96788.77
2023-10-27T17:11:27.522Z,96792.73
2023-10-27T17:13:31.012Z,96792.05
2023-10-27T17:15:33.840Z,96790.38
2023-10-27T17:17:40.464Z,96790.84
2023-10-27T17:19:45.411Z,96792.27
2023-10-27T17:21:48.321Z,96795.98
2023-10-27T17:23:54.364Z,96800.98
2023-10-27T17:25:58.374Z,96797.06
2023-10-27T17:28:01.924Z,96800.59
2023-10-27T17:30:06.785Z,96807.88
2023-10-27T17:32:11.749Z,96807.41
2023-10-27T17:34:14.423Z,96812.16
2023-10-27T17:36:21.566Z,96816.60
2023-10-27T17:38:24.211Z,96820.38
2023-10-27T17:40:27.574Z,96826.45
2023-10-27T17:42:34.178Z,96824.16
2023-10-27T17:44:39.264Z,96828.48
2023-10-27T17:46:43.898Z,96829.41
2023-10-27T17:48:49.721Z,96832.15
2023-10-27T17:51:02.219Z,96831.02
2023-10-27T17:53:05.267Z,96825.81
2023-10-27T17:55:08.756Z,96826.50
2023-10-27T17:57:11.451Z,96832.77
2023-10-27T17:59:14.599Z,96827.84
2023-10-27T18:01:17.514Z,96828.25
2023-10-27T18:03:24.703Z,96829.34
2023-10-27T18:05:28.040Z,96828.00
2023-10-27T18:07:30.756Z,96826.39
2023-10-27T18:09:33.460Z,96830.75
2023-10-27T18:11:36.083Z,96831.03
2023-10-27T18:13:40.383Z,96835.05
2023-10-27T18:15:46.038Z,96834.23
2023-10-27T18:17:51.751Z,96831.38
2023-10-27T18:19:59.068Z,96829.59
2023-10-27T18:22:02.766Z,96840.36
2023-10-27T18:24:08.076Z,96841.66
2023-10-27T18:26:15.958Z,96846.70
2023-10-27T18:28:20.683Z,96846.50
2023-10-27T18:30:24.180Z,96846.30
2023-10-27T18:32:29.381Z,96839.88
2023-10-27T18:34:33.055Z,96838.92
2023-10-27T18:36:36.283Z,96832.94
2023-10-27T18:38:41.304Z,96837.25
2023-10-27T18:40:45.255Z,96839.56
2023-10-27T18:42:49.446Z,96841.00
2023-10-27T18:44:52.600Z,96842.62
2023-10-27T18:46:55.372Z,96846.96
2023-10-27T18:49:00.213Z,96848.08
2023-10-27T18:51:03.946Z,96853.23
2023-10-27T18:53:06.978Z,96847.33
2023-10-27T18:55:10.318Z,96849.17
2023-10-27T18:57:14.230Z,96849.35
2023-10-27T18:59:18.758Z,96854.04
2023-10-27T19:01:21.792Z,96857.95
2023-10-27T19:03:30.770Z,96856.05
2023-10-27T19:05:36.989Z,96861.58
2023-10-27T19:07:40.496Z,96861.75
2023-10-27T19:09:44.936Z,96866.63
2023-10-27T19:11:47.864Z,96867.11
2023-10-27T19:13:52.713Z,96869.52
2023-10-27T19:15:55.776Z,96868.40
2023-10-27T19:17:59.020Z,96869.48
2023-10-27T19:20:04.025Z,96866.61
2023-10-27T19:22:07.121Z,96867.07
2023-10-27T19:24:10.194Z,96863.09
2023-10-27T19:26:15.948Z,96862.02
2023-10-27T19:28:19.418Z,96862.85
2023-10-27T19:30:22.070Z,96859.89
2023-10-27T19:32:25.877Z,96858.69
2023-10-27T19:34:30.879Z,96870.30
2023-10-27T19:36:35.124Z,96869.90
2023-10-27T19:38:38.354Z,96865.06
2023-10-27T19:40:41.074Z,96875.73
2023-10-27T19:42:45.330Z,96878.81
2023-10-27T19:44:49.718Z,96886.26
2023-10-27T19:46:54.963Z,96895.75
2023-10-27T19:48:57.741Z,96898.16
2023-10-27T19:51:01.443Z,96898.89
2023-10-27T19:53:05.487Z,96906.31
2023-10-27T19:55:15.978Z,96907.41
2023-10-27T19:57:20.125Z,96911.14
2023-10-27T19:59:23.103Z,96914.25
2023-10-27T20:01:27.538Z,96916.85
2023-10-27T20:03:32.071Z,96911.84
2023-10-27T20:05:39.419Z,96916.20
2023-10-27T20:07:42.096Z,96920.40
2023-10-27T20:09:44.895Z,96921.24
2023-10-27T20:11:51.543Z,96924.41
2023-10-27T20:13:54.239Z,96918.17
2023-10-27T20:16:00.787Z,96920.52
2023-10-27T20:18:06.715Z,96924.94
2023-10-27T20:20:15.427Z,96923.00
2023-10-27T20:22:19.869Z,96920.35
2023-10-27T20:24:22.876Z,96922.14
2023-10-27T20:26:26.117Z,96918.38
2023-10-27T20:28:29.756Z,96916.95
2023-10-27T20:30:32.943Z,96920.35
2023-10-27T20:32:36.034Z,96923.39
2023-10-27T20:34:39.389Z,96924.01
2023-10-27T20:36:42.276Z,96922.98
2023-10-27T20:38:45.206Z,96925.33
2023-10-27T20:40:48.369Z,96923.77
2023-10-27T20:42:51.518Z,96921.99
2023-10-27T20:44:54.694Z,96930.70
2023-10-27T20:46:57.384Z,96929.23
2023-10-27T20:49:00.037Z,96932.73
2023-10-27T20:51:04.305Z,96934.42
2023-10-27T20:53:08.815Z,96933.96
2023-10-27T20:55:18.968Z,96938.24
2023-10-27T20:57:22.968Z,96939.25
2023-10-27T20:59:25.870Z,96933.98
2023-10-27T21:01:28.519Z,96930.73
2023-10-27T21:03:31.835Z,96940.54
2023-10-27T21:05:35.202Z,96938.87
2023-10-27T21:07:39.342Z,96939.41
2023-10-27T21:09:42.428Z,96941.05
2023-10-27T21:11:45.087Z,96941.58
2023-10-27T21:13:50.220Z,96946.17
2023-10-27T21:15:54.034Z,96951.27
2023-10-27T21:17:57.904Z,96950.19
2023-10-27T21:20:01.460Z,96953.26
2023-10-27T21:22:04.520Z,96956.52
2023-10-27T21:24:08.251Z,96957.14
2023-10-27T21:26:16.079Z,96952.39
2023-10-27T21:28:21.030Z,96954.25
2023-10-27T21:30:23.834Z,96955.92
2023-10-27T21:32:26.550Z,96953.42
2023-10-27T21:34:30.611Z,96954.38
2023-10-27T21:36:33.262Z,96952.73
2023-10-27T21:38:36.450Z,96952.48
2023-10-27T21:40:39.299Z,96947.36
2023-10-27T21:42:42.088Z,96946.42
2023-10-27T21:44:46.896Z,96946.27
2023-10-27T21:46:49.812Z,96944.99
2023-10-27T21:48:52.737Z,96947.85
2023-10-27T21:51:08.683Z,96949.61
2023-10-27T21:53:11.534Z,96952.66
2023-10-27T21:55:14.331Z,96948.66
2023-10-27T21:57:17.010Z,96954.89
2023-10-27T21:59:19.674Z,96954.96
2023-10-27T22:01:24.616Z,96956.84
2023-10-27T22:03:28.701Z,96957.57
2023-10-27T22:05:34.495Z,96956.70
2023-10-27T22:07:38.497Z,96958.50
2023-10-27T22:09:41.489Z,96957.70
2023-10-27T22:11:47.853Z,96964.04
2023-10-27T22:13:52.480Z,96964.09
2023-10-27T22:15:55.525Z,96971.09
2023-10-27T22:17:59.683Z,96978.46
2023-10-27T22:20:04.295Z,96981.50
2023-10-27T22:22:07.151Z,96986.36
2023-10-27T22:24:09.937Z,96991.41
2023-10-27T22:26:13.735Z,96994.02
2023-10-27T22:28:17.347Z,96995.46
2023-10-27T22:30:21.211Z,96999.25
2023-10-27T22:32:25.418Z,97000.34
2023-10-27T22:34:28.002Z,96996.36
2023-10-27T22:36:31.597Z,96996.08
2023-10-27T22:38:34.826Z,96992.02
2023-10-27T22:40:37.664Z,96992.52
2023-10-27T22:42:44.849Z,96986.20
2023-10-27T22:44:49.191Z,96986.11
2023-10-27T22:46:54.654Z,96985.67
2023-10-27T22:48:57.345Z,96992.42
2023-10-27T22:51:06.099Z,96987.75
2023-10-27T22:53:09.425Z,96988.65
2023-10-27T22:55:12.285Z,96987.17
2023-10-27T22:57:19.468Z,96986.48
2023-10-27T22:59:23.676Z,96991.09
2023-10-27T23:01:26.320Z,96992.05
2023-10-27T23:03:29.834Z,96990.41
2023-10-27T23:05:36.443Z,96993.85
2023-10-27T23:07:40.970Z,96997.05
2023-10-27T23:09:43.669Z,96995.58
2023-10-27T23:11:46.567Z,96992.49
2023-10-27T23:13:49.582Z,96990.98
2023-10-27T23:15:53.546Z,96993.73
2023-10-27T23:17:56.378Z,96995.61
2023-10-27T23:19:59.779Z,96996.89
2023-10-27T23:22:07.826Z,96997.34
2023-10-27T23:24:12.869Z,96998.83
2023-10-27T23:26:15.514Z,96993.77
2023-10-27T23:28:18.940Z,96994.11
2023-10-27T23:30:21.699Z,96992.54
2023-10-27T23:32:24.344Z,96992.81
2023-10-27T23:34:29.437Z,96994.66
2023-10-27T23:36:34.036Z,96993.81
2023-10-27T23:38:39.771Z,96990.19
2023-10-27T23:40:42.460Z,96991.55
2023-10-27T23:42:50.614Z,96986.55
2023-10-27T23:44:53.428Z,96984.48
2023-10-27T23:46:56.637Z,96987.76
2023-10-27T23:48:59.488Z,96992.82
2023-10-27T23:51:02.934Z,96996.70
2023-10-27T23:53:06.146Z,96994.67
2023-10-27T23:55:09.395Z,96990.90
2023-10-27T23:57:12.634Z,96988.61
2023-10-27T23:59:16.251Z,96990.86
